createdAt,value
2022-12-06T00:01:22.539Z,2.70
2022-12-06T00:03:54.715Z,2.70
2022-12-06T00:06:24.306Z,2.70
2022-12-06T00:08:51.607Z,2.80
2022-12-06T00:11:24.151Z,2.70
2022-12-06T00:13:59.387Z,2.70
2022-12-06T00:16:27.002Z,2.80
2022-12-06T00:18:54.286Z,2.80
2022-12-06T00:21:29.126Z,2.80
2022-12-06T00:24:02.232Z,2.70
2022-12-06T00:26:30.131Z,2.80
2022-12-06T00:28:59.246Z,2.80
2022-12-06T00:31:28.264Z,2.70
2022-12-06T00:33:55.248Z,2.70
2022-12-06T00:36:26.235Z,2.70
2022-12-06T00:38:52.988Z,2.60
2022-12-06T00:41:22.422Z,2.60
2022-12-06T00:43:49.904Z,2.60
2022-12-06T00:46:25.149Z,2.60
2022-12-06T00:48:53.058Z,2.50
2022-12-06T00:51:23.120Z,2.50
2022-12-06T00:53:50.414Z,2.50
2022-12-06T00:56:19.297Z,2.50
2022-12-06T00:58:47.019Z,2.50
2022-12-06T01:01:17.078Z,2.50
2022-12-06T01:03:45.398Z,2.50
2022-12-06T01:06:15.845Z,2.50
2022-12-06T01:08:43.738Z,2.50
2022-12-06T01:11:15.137Z,2.50
2022-12-06T01:13:44.326Z,2.50
2022-12-06T01:16:14.186Z,2.50
2022-12-06T01:18:42.069Z,2.50
2022-12-06T01:21:11.449Z,2.60
2022-12-06T01:23:38.244Z,2.60
2022-12-06T01:26:07.435Z,2.60
2022-12-06T01:28:34.180Z,2.60
2022-12-06T01:31:06.086Z,2.50
2022-12-06T01:33:32.742Z,2.50
2022-12-06T01:35:59.420Z,2.50
2022-12-06T01:38:26.411Z,2.60
2022-12-06T01:40:54.332Z,2.60
2022-12-06T01:43:42.777Z,2.60
2022-12-06T01:46:47.481Z,2.60
2022-12-06T01:49:19.279Z,2.60
2022-12-06T01:51:59.057Z,2.60
2022-12-06T01:54:27.577Z,2.60
2022-12-06T01:56:57.089Z,2.60
2022-12-06T01:59:25.512Z,2.60
2022-12-06T02:01:53.132Z,2.60
2022-12-06T02:04:22.111Z,2.60
2022-12-06T02:06:54.131Z,2.60
2022-12-06T02:09:21.600Z,2.50
2022-12-06T02:11:50.124Z,2.50
2022-12-06T02:14:27.680Z,2.60
2022-12-06T02:17:12.856Z,2.60
2022-12-06T02:19:58.548Z,2.60
2022-12-06T02:22:25.707Z,2.60
2022-12-06T02:24:55.364Z,2.60
2022-12-06T02:27:24.822Z,2.60
2022-12-06T02:30:08.518Z,2.50
2022-12-06T02:32:54.873Z,2.50
2022-12-06T02:35:37.039Z,2.50
2022-12-06T02:38:20.222Z,2.40
2022-12-06T02:41:01.573Z,2.40
2022-12-06T02:43:37.729Z,2.40
2022-12-06T02:46:05.964Z,2.30
2022-12-06T02:48:34.048Z,2.30
2022-12-06T02:51:07.199Z,2.30
2022-12-06T02:53:38.329Z,2.30
2022-12-06T02:56:06.176Z,2.40
2022-12-06T02:58:37.244Z,2.30
2022-12-06T03:01:12.347Z,2.40
2022-12-06T03:04:03.647Z,2.40
2022-12-06T03:07:14.674Z,2.40
2022-12-06T03:10:03.788Z,2.40
2022-12-06T03:12:44.152Z,2.40
2022-12-06T03:15:28.903Z,2.40
2022-12-06T03:18:06.414Z,2.30
2022-12-06T03:20:46.111Z,2.30
2022-12-06T03:23:18.774Z,2.20
2022-12-06T03:25:48.968Z,2.20
2022-12-06T03:28:17.924Z,2.20
2022-12-06T03:30:50.240Z,2.20
2022-12-06T03:33:21.344Z,2.10
2022-12-06T03:35:51.492Z,2.10
2022-12-06T03:38:29.863Z,2.20
2022-12-06T03:41:01.139Z,2.20
2022-12-06T03:43:27.979Z,2.20
2022-12-06T03:46:17.712Z,2.20
2022-12-06T03:48:52.807Z,2.20
2022-12-06T03:51:27.129Z,2.20
2022-12-06T03:53:57.414Z,2.20
2022-12-06T03:56:25.303Z,2.20
2022-12-06T03:58:52.215Z,2.10
2022-12-06T04:01:18.960Z,2.20
2022-12-06T04:03:45.805Z,2.10
2022-12-06T04:06:14.266Z,2.20
2022-12-06T04:08:41.011Z,2.20
2022-12-06T04:11:07.823Z,2.20
2022-12-06T04:13:35.700Z,2.20
2022-12-06T04:16:03.510Z,2.20
2022-12-06T04:18:30.304Z,2.30
2022-12-06T04:21:20.110Z,2.30
2022-12-06T04:23:49.176Z,2.30
2022-12-06T04:26:19.823Z,2.30
2022-12-06T04:29:06.311Z,2.30
2022-12-06T04:31:54.481Z,2.30
2022-12-06T04:34:39.944Z,2.30
2022-12-06T04:37:25.418Z,2.30
2022-12-06T04:39:52.079Z,2.30
2022-12-06T04:42:37.852Z,2.30
2022-12-06T04:45:06.005Z,2.30
2022-12-06T04:47:32.705Z,2.30
2022-12-06T04:49:59.653Z,2.30
2022-12-06T04:52:30.128Z,2.20
2022-12-06T04:55:00.918Z,2.30
2022-12-06T04:57:27.567Z,2.20
2022-12-06T04:59:55.315Z,2.30
2022-12-06T05:02:21.966Z,2.20
2022-12-06T05:04:48.612Z,2.20
2022-12-06T05:07:15.255Z,2.20
2022-12-06T05:09:42.918Z,2.20
2022-12-06T05:12:09.704Z,2.10
2022-12-06T05:14:36.722Z,2.10
2022-12-06T05:17:04.883Z,2.10
2022-12-06T05:19:31.605Z,2.10
2022-12-06T05:21:58.535Z,2.00
2022-12-06T05:24:25.291Z,2.00
2022-12-06T05:26:51.960Z,2.10
2022-12-06T05:29:24.693Z,2.00
2022-12-06T05:31:51.420Z,2.00
2022-12-06T05:34:18.139Z,2.10
2022-12-06T05:36:46.211Z,2.10
2022-12-06T05:39:13.168Z,2.10
2022-12-06T05:41:40.572Z,2.10
2022-12-06T05:44:09.799Z,2.10
2022-12-06T05:46:36.463Z,2.10
2022-12-06T05:49:03.294Z,2.00
2022-12-06T05:51:30.154Z,2.00
2022-12-06T05:53:56.817Z,2.00
2022-12-06T05:56:23.471Z,2.00
2022-12-06T05:58:50.268Z,1.90
2022-12-06T06:01:16.923Z,1.90
2022-12-06T06:03:47.496Z,1.90
2022-12-06T06:06:15.311Z,1.90
2022-12-06T06:08:42.421Z,1.80
2022-12-06T06:11:09.151Z,1.80
2022-12-06T06:13:35.787Z,1.80
2022-12-06T06:16:02.665Z,1.80
2022-12-06T06:18:29.291Z,1.80
2022-12-06T06:20:58.939Z,1.80
2022-12-06T06:23:26.950Z,1.80
2022-12-06T06:25:54.220Z,1.80
2022-12-06T06:28:21.279Z,1.80
2022-12-06T06:30:48.482Z,1.80
2022-12-06T06:33:15.856Z,1.80
2022-12-06T06:35:43.173Z,1.80
2022-12-06T06:38:09.898Z,1.80
2022-12-06T06:40:36.850Z,1.90
2022-12-06T06:43:18.346Z,1.90
2022-12-06T06:45:56.013Z,1.90
2022-12-06T06:48:24.659Z,1.90
2022-12-06T06:50:57.051Z,1.90
2022-12-06T06:53:26.297Z,1.90
2022-12-06T06:55:54.354Z,1.90
2022-12-06T06:58:21.043Z,1.90
2022-12-06T07:00:52.901Z,1.90
2022-12-06T07:03:20.720Z,1.90
2022-12-06T07:06:01.799Z,1.90
2022-12-06T07:08:30.011Z,1.90
2022-12-06T07:10:56.804Z,1.90
2022-12-06T07:13:25.169Z,1.90
2022-12-06T07:15:52.414Z,1.90
2022-12-06T07:18:19.688Z,1.90
2022-12-06T07:20:47.414Z,1.90
2022-12-06T07:23:14.890Z,1.90
2022-12-06T07:25:41.850Z,1.90
2022-12-06T07:28:08.504Z,1.90
2022-12-06T07:30:35.323Z,2.00
2022-12-06T07:33:03.321Z,2.00
2022-12-06T07:35:48.870Z,2.00
2022-12-06T07:38:17.037Z,2.00
2022-12-06T07:43:49.190Z,2.00
2022-12-06T07:46:16.000Z,2.00
2022-12-06T07:48:42.868Z,2.00
2022-12-06T07:51:09.650Z,2.00
2022-12-06T07:53:36.437Z,2.00
2022-12-06T07:56:08.036Z,2.00
2022-12-06T07:58:34.778Z,2.00
2022-12-06T08:01:04.485Z,2.10
2022-12-06T08:03:31.626Z,2.10
2022-12-06T08:05:58.784Z,2.10
2022-12-06T08:08:28.810Z,2.10
2022-12-06T08:10:59.633Z,2.10
2022-12-06T08:13:26.771Z,2.20
2022-12-06T08:15:53.458Z,2.20
2022-12-06T08:18:20.218Z,2.20
2022-12-06T08:20:46.956Z,2.30
2022-12-06T08:23:13.613Z,2.30
2022-12-06T08:25:40.348Z,2.30
2022-12-06T08:28:07.046Z,2.40
2022-12-06T08:30:33.761Z,2.40
2022-12-06T08:33:02.869Z,2.40
2022-12-06T08:35:29.530Z,2.40
2022-12-06T08:37:56.197Z,2.40
2022-12-06T08:40:22.864Z,2.40
2022-12-06T08:42:49.575Z,2.40
2022-12-06T08:45:16.423Z,2.50
2022-12-06T08:47:43.102Z,2.50
2022-12-06T08:50:10.033Z,2.50
2022-12-06T08:52:36.706Z,2.50
2022-12-06T08:55:03.601Z,2.50
2022-12-06T08:57:32.866Z,2.60
2022-12-06T08:59:59.926Z,2.60
2022-12-06T09:02:26.798Z,2.50
2022-12-06T09:04:53.793Z,2.60
2022-12-06T09:07:20.564Z,2.60
2022-12-06T09:09:47.346Z,2.60
2022-12-06T09:12:14.122Z,2.60
2022-12-06T09:14:40.787Z,2.60
2022-12-06T09:17:07.494Z,2.70
2022-12-06T09:19:37.216Z,2.70
2022-12-06T09:22:03.999Z,2.70
2022-12-06T09:24:30.798Z,2.70
2022-12-06T09:26:57.509Z,2.60
2022-12-06T09:29:25.025Z,2.70
2022-12-06T09:31:51.924Z,2.70
2022-12-06T09:34:18.690Z,2.70
2022-12-06T09:37:05.126Z,2.70
2022-12-06T09:39:36.754Z,2.70
2022-12-06T09:42:18.189Z,2.70
2022-12-06T09:45:03.528Z,2.70
2022-12-06T09:47:32.971Z,2.80
2022-12-06T09:50:13.046Z,2.80
2022-12-06T09:53:04.428Z,2.80
2022-12-06T09:55:54.841Z,2.80
2022-12-06T09:58:52.661Z,2.80
2022-12-06T10:01:56.765Z,2.80
2022-12-06T10:04:41.913Z,2.80
2022-12-06T10:07:22.459Z,2.80
2022-12-06T10:10:15.304Z,2.80
2022-12-06T10:12:49.184Z,2.80
2022-12-06T10:15:32.767Z,2.80
2022-12-06T10:18:12.741Z,2.80
2022-12-06T10:21:08.843Z,2.80
2022-12-06T10:24:17.786Z,2.90
2022-12-06T10:26:53.629Z,2.80
2022-12-06T10:29:55.113Z,2.90
2022-12-06T10:32:32.427Z,2.80
2022-12-06T10:35:13.806Z,2.90
2022-12-06T10:38:06.544Z,2.80
2022-12-06T10:41:10.267Z,2.90
2022-12-06T10:43:54.983Z,2.90
2022-12-06T10:46:56.871Z,2.90
2022-12-06T10:49:39.373Z,3.00
2022-12-06T10:52:18.821Z,3.00
2022-12-06T10:55:09.116Z,3.00
2022-12-06T10:57:38.665Z,3.10
2022-12-06T11:00:21.439Z,3.00
2022-12-06T11:03:12.638Z,3.00
2022-12-06T11:06:17.943Z,3.00
2022-12-06T11:08:52.588Z,3.00
2022-12-06T11:11:26.783Z,3.10
2022-12-06T11:14:04.636Z,3.10
2022-12-06T11:16:38.020Z,3.10
2022-12-06T11:19:16.300Z,3.10
2022-12-06T11:21:50.874Z,3.10
2022-12-06T11:24:35.268Z,3.20
2022-12-06T11:27:16.148Z,3.20
2022-12-06T11:29:44.551Z,3.20
2022-12-06T11:32:14.068Z,3.20
2022-12-06T11:34:50.883Z,3.20
2022-12-06T11:37:23.014Z,3.20
2022-12-06T11:39:56.242Z,3.20
2022-12-06T11:42:27.520Z,3.30
2022-12-06T11:45:21.858Z,3.30
2022-12-06T11:47:48.541Z,3.30
2022-12-06T11:50:18.790Z,3.30
2022-12-06T11:52:53.313Z,3.30
2022-12-06T11:55:24.263Z,3.30
2022-12-06T11:57:58.555Z,3.30
2022-12-06T12:00:26.577Z,3.30
2022-12-06T12:02:55.769Z,3.30
2022-12-06T12:05:34.533Z,3.30
2022-12-06T12:08:17.157Z,3.30
2022-12-06T12:10:46.285Z,3.30
2022-12-06T12:13:31.495Z,3.30
2022-12-06T12:16:19.986Z,3.30
2022-12-06T12:18:54.074Z,3.30
2022-12-06T12:21:34.339Z,3.30
2022-12-06T12:24:01.231Z,3.30
2022-12-06T12:26:41.144Z,3.30
2022-12-06T12:29:19.715Z,3.30
2022-12-06T12:31:54.450Z,3.30
2022-12-06T12:34:27.239Z,3.30
2022-12-06T12:37:02.931Z,3.30
2022-12-06T12:39:47.373Z,3.30
2022-12-06T12:42:32.958Z,3.30
2022-12-06T12:45:02.885Z,3.30
2022-12-06T12:47:30.971Z,3.40
2022-12-06T12:50:20.152Z,3.40
2022-12-06T12:52:47.448Z,3.40
2022-12-06T12:55:18.178Z,3.30
2022-12-06T12:57:47.269Z,3.40
2022-12-06T13:00:17.910Z,3.40
2022-12-06T13:02:46.635Z,3.30
2022-12-06T13:05:33.339Z,3.30
2022-12-06T13:08:21.655Z,3.30
2022-12-06T13:10:57.047Z,3.30
2022-12-06T13:13:47.946Z,3.30
2022-12-06T13:16:19.683Z,3.30
2022-12-06T13:18:51.090Z,3.30
2022-12-06T13:21:25.653Z,3.30
2022-12-06T13:24:07.574Z,3.30
2022-12-06T13:26:39.320Z,3.30
2022-12-06T13:29:23.932Z,3.30
2022-12-06T13:31:53.630Z,3.30
2022-12-06T13:34:52.006Z,3.30
2022-12-06T13:37:43.588Z,3.40
2022-12-06T13:40:33.190Z,3.40
2022-12-06T13:43:01.788Z,3.40
2022-12-06T13:45:40.623Z,3.40
2022-12-06T13:48:25.726Z,3.40
2022-12-06T13:50:55.498Z,3.40
2022-12-06T13:53:27.767Z,3.40
2022-12-06T13:56:03.347Z,3.40
2022-12-06T13:58:32.393Z,3.30
2022-12-06T14:00:59.171Z,3.30
2022-12-06T14:03:25.872Z,3.30
2022-12-06T14:06:15.760Z,3.40
2022-12-06T14:09:00.120Z,3.30
2022-12-06T14:11:29.387Z,3.40
2022-12-06T14:13:56.188Z,3.30
2022-12-06T14:16:32.842Z,3.30
2022-12-06T14:19:00.248Z,3.30
2022-12-06T14:21:34.197Z,3.30
2022-12-06T14:24:00.934Z,3.30
2022-12-06T14:26:29.703Z,3.30
2022-12-06T14:28:59.483Z,3.30
2022-12-06T14:31:30.233Z,3.30
2022-12-06T14:33:57.585Z,3.40
2022-12-06T14:36:33.566Z,3.30
2022-12-06T14:39:05.807Z,3.40
2022-12-06T14:41:56.550Z,3.40
2022-12-06T14:44:30.726Z,3.40
2022-12-06T14:46:58.476Z,3.40
2022-12-06T14:49:45.667Z,3.30
2022-12-06T14:52:30.440Z,3.30
2022-12-06T14:55:12.623Z,3.30
2022-12-06T14:57:51.113Z,3.30
2022-12-06T15:00:27.419Z,3.40
2022-12-06T15:03:04.158Z,3.40
2022-12-06T15:05:43.695Z,3.40
2022-12-06T15:08:28.454Z,3.40
2022-12-06T15:10:59.945Z,3.40
2022-12-06T15:13:27.596Z,3.40
2022-12-06T15:16:09.742Z,3.40
2022-12-06T15:18:54.968Z,3.40
2022-12-06T15:21:21.699Z,3.40
2022-12-06T15:23:57.634Z,3.50
2022-12-06T15:26:25.030Z,3.50
2022-12-06T15:28:51.998Z,3.40
2022-12-06T15:31:27.256Z,3.40
2022-12-06T15:33:54.787Z,3.40
2022-12-06T15:36:26.710Z,3.40
2022-12-06T15:38:53.544Z,3.40
2022-12-06T15:41:22.298Z,3.40
2022-12-06T15:43:50.664Z,3.40
2022-12-06T15:46:29.218Z,3.40
2022-12-06T15:48:58.811Z,3.40
2022-12-06T15:51:27.099Z,3.40
2022-12-06T15:53:58.165Z,3.40
2022-12-06T15:56:28.507Z,3.40
2022-12-06T15:58:55.334Z,3.40
2022-12-06T16:01:23.570Z,3.40
2022-12-06T16:03:54.223Z,3.40
2022-12-06T16:06:21.887Z,3.40
2022-12-06T16:08:48.881Z,3.40
2022-12-06T16:11:18.671Z,3.40
2022-12-06T16:13:45.477Z,3.40
2022-12-06T16:16:12.899Z,3.40
2022-12-06T16:18:39.693Z,3.40
2022-12-06T16:21:07.142Z,3.40
2022-12-06T16:26:45.313Z,3.40
2022-12-06T16:29:21.077Z,3.40
2022-12-06T16:31:48.280Z,3.40
2022-12-06T16:34:15.841Z,3.40
2022-12-06T16:37:13.246Z,3.40
2022-12-06T16:39:40.051Z,3.40
2022-12-06T16:42:07.240Z,3.40
2022-12-06T16:44:50.713Z,3.40
2022-12-06T16:49:47.487Z,3.40
2022-12-06T16:52:16.112Z,3.40
2022-12-06T16:54:43.194Z,3.40
2022-12-06T16:57:11.895Z,3.40
2022-12-06T16:59:39.003Z,3.40
2022-12-06T17:02:24.452Z,3.40
2022-12-06T17:04:51.187Z,3.40
2022-12-06T17:07:20.457Z,3.40
2022-12-06T17:09:47.298Z,3.40
2022-12-06T17:12:15.331Z,3.40
2022-12-06T17:14:42.460Z,3.40
2022-12-06T17:17:15.374Z,3.40
2022-12-06T17:19:43.041Z,3.40
2022-12-06T17:22:12.263Z,3.40
2022-12-06T17:24:39.124Z,3.40
2022-12-06T17:27:11.303Z,3.40
2022-12-06T17:29:38.151Z,3.40
2022-12-06T17:32:06.861Z,3.40
2022-12-06T17:34:36.532Z,3.40
2022-12-06T17:37:03.855Z,3.40
2022-12-06T17:39:33.236Z,3.50
2022-12-06T17:42:18.767Z,3.40
2022-12-06T17:44:46.554Z,3.50
2022-12-06T17:47:13.249Z,3.50
2022-12-06T17:49:40.054Z,3.50
2022-12-06T17:52:07.021Z,3.40
2022-12-06T17:54:33.708Z,3.40
2022-12-06T17:57:00.438Z,3.40
2022-12-06T17:59:33.999Z,3.40
2022-12-06T18:02:15.155Z,3.40
2022-12-06T18:04:43.837Z,3.50
2022-12-06T18:07:13.114Z,3.40
2022-12-06T18:09:40.199Z,3.40
2022-12-06T18:12:09.397Z,3.40
2022-12-06T18:14:36.343Z,3.40
2022-12-06T18:17:03.541Z,3.40
2022-12-06T18:19:31.286Z,3.40
2022-12-06T18:21:57.978Z,3.40
2022-12-06T18:24:29.137Z,3.40
2022-12-06T18:26:58.601Z,3.40
2022-12-06T18:29:26.577Z,3.40
2022-12-06T18:31:53.354Z,3.40
2022-12-06T18:34:20.259Z,3.40
2022-12-06T18:36:47.981Z,3.40
2022-12-06T18:39:16.685Z,3.40
2022-12-06T18:41:44.500Z,3.40
2022-12-06T18:44:15.574Z,3.40
2022-12-06T18:46:42.949Z,3.40
2022-12-06T18:49:26.863Z,3.40
2022-12-06T18:51:55.038Z,3.40
2022-12-06T18:54:23.027Z,3.40
2022-12-06T18:56:49.678Z,3.30
2022-12-06T18:59:16.546Z,3.30
2022-12-06T19:01:43.636Z,3.30
2022-12-06T19:04:14.817Z,3.30
2022-12-06T19:06:48.703Z,3.30
2022-12-06T19:09:15.911Z,3.30
2022-12-06T19:11:46.368Z,3.30
2022-12-06T19:14:16.604Z,3.20
2022-12-06T19:16:48.664Z,3.30
2022-12-06T19:19:24.294Z,3.30
2022-12-06T19:21:53.647Z,3.30
2022-12-06T19:24:23.615Z,3.20
2022-12-06T19:26:51.819Z,3.30
2022-12-06T19:29:19.906Z,3.20
2022-12-06T19:31:48.407Z,3.30
2022-12-06T19:34:22.099Z,3.30
2022-12-06T19:36:50.449Z,3.30
2022-12-06T19:39:17.969Z,3.30
2022-12-06T19:42:05.797Z,3.30
2022-12-06T19:44:33.884Z,3.30
2022-12-06T19:47:03.085Z,3.30
2022-12-06T19:49:29.847Z,3.30
2022-12-06T19:51:56.662Z,3.30
2022-12-06T19:54:29.273Z,3.20
2022-12-06T19:56:58.211Z,3.20
2022-12-06T19:59:27.679Z,3.20
2022-12-06T20:01:54.903Z,3.20
2022-12-06T20:04:29.007Z,3.20
2022-12-06T20:06:57.922Z,3.20
2022-12-06T20:09:29.750Z,3.20
2022-12-06T20:12:04.749Z,3.20
2022-12-06T20:14:47.238Z,3.10
2022-12-06T20:17:19.895Z,3.10
2022-12-06T20:19:48.312Z,3.10
2022-12-06T20:22:16.518Z,3.10
2022-12-06T20:24:43.565Z,3.10
2022-12-06T20:27:10.592Z,3.00
2022-12-06T20:29:40.137Z,3.00
2022-12-06T20:32:09.161Z,3.00
2022-12-06T20:34:36.342Z,3.00
2022-12-06T20:37:06.128Z,3.00
2022-12-06T20:39:35.164Z,3.00
2022-12-06T20:42:03.382Z,3.00
2022-12-06T20:44:32.515Z,2.90
2022-12-06T20:47:00.662Z,2.90
2022-12-06T20:49:27.408Z,2.90
2022-12-06T20:51:54.347Z,2.90
2022-12-06T20:54:22.254Z,2.90
2022-12-06T20:56:51.999Z,2.90
2022-12-06T20:59:20.620Z,2.90
2022-12-06T21:01:47.789Z,2.90
2022-12-06T21:04:15.739Z,2.90
2022-12-06T21:06:42.493Z,2.90
2022-12-06T21:09:09.657Z,2.90
2022-12-06T21:11:37.468Z,2.90
2022-12-06T21:14:05.499Z,2.80
2022-12-06T21:16:33.772Z,2.80
2022-12-06T21:19:03.543Z,2.80
2022-12-06T21:21:43.027Z,2.90
2022-12-06T21:24:16.233Z,2.80
2022-12-06T21:26:43.395Z,2.80
2022-12-06T21:29:30.789Z,2.80
2022-12-06T21:32:00.231Z,2.80
2022-12-06T21:34:27.031Z,2.80
2022-12-06T21:36:55.996Z,2.80
2022-12-06T21:39:23.326Z,2.80
2022-12-06T21:41:50.180Z,2.80
2022-12-06T21:44:16.960Z,2.80
2022-12-06T21:46:50.387Z,2.80
2022-12-06T21:49:17.100Z,2.80
2022-12-06T21:51:53.729Z,2.80
2022-12-06T21:54:23.523Z,2.80
2022-12-06T21:56:50.601Z,2.80
2022-12-06T21:59:19.349Z,2.80
2022-12-06T22:01:47.209Z,2.80
2022-12-06T22:04:16.379Z,2.80
2022-12-06T22:06:43.182Z,2.80
2022-12-06T22:09:24.386Z,2.70
2022-12-06T22:12:04.389Z,2.70
2022-12-06T22:14:37.381Z,2.70
2022-12-06T22:17:04.220Z,2.70
2022-12-06T22:19:31.211Z,2.70
2022-12-06T22:22:00.483Z,2.60
2022-12-06T22:24:28.487Z,2.60
2022-12-06T22:26:55.242Z,2.60
2022-12-06T22:29:22.050Z,2.50
2022-12-06T22:31:48.801Z,2.50
2022-12-06T22:34:16.850Z,2.50
2022-12-06T22:36:44.232Z,2.40
2022-12-06T22:39:11.546Z,2.40
2022-12-06T22:41:38.530Z,2.40
2022-12-06T22:44:06.891Z,2.40
2022-12-06T22:46:34.869Z,2.40
2022-12-06T22:49:02.608Z,2.30
2022-12-06T22:51:35.000Z,2.30
2022-12-06T22:54:08.951Z,2.30
2022-12-06T22:56:38.719Z,2.20
2022-12-06T22:59:05.403Z,2.20
2022-12-06T23:01:35.069Z,2.20
2022-12-06T23:04:04.783Z,2.20
2022-12-06T23:06:32.239Z,2.10
2022-12-06T23:08:59.061Z,2.10
2022-12-06T23:11:29.260Z,2.10
2022-12-06T23:13:57.163Z,2.00
2022-12-06T23:16:29.056Z,2.00
2022-12-06T23:18:56.658Z,2.00
2022-12-06T23:21:34.807Z,1.90
2022-12-06T23:24:04.854Z,1.90
2022-12-06T23:26:44.326Z,1.90
2022-12-06T23:29:11.625Z,1.90
2022-12-06T23:31:41.543Z,1.80
2022-12-06T23:34:16.803Z,1.80
2022-12-06T23:36:44.106Z,1.80
2022-12-06T23:39:11.330Z,1.80
2022-12-06T23:41:38.549Z,1.80
2022-12-06T23:44:06.497Z,1.80
2022-12-06T23:46:37.272Z,1.80
2022-12-06T23:49:05.940Z,1.80
2022-12-06T23:51:38.038Z,1.80
2022-12-06T23:54:07.130Z,1.70
2022-12-06T23:56:36.897Z,1.70
2022-12-06T23:59:06.741Z,1.70
